Time;durP1;ratioP1;P1;durP2;ratioP2;P2;SDS_P1;SDS_P2;PMS_P1;PMS_P2;Temp;Humidity;BMP_temperature;BMP_pressure;BME280_temperature;BME280_humidity;BME280_pressure;Samples;Min_cycle;Max_cycle;Signal;HPM_P1;HPM_P2
2021/03/29 00:02:08;;;;;;;39.83;13.83;;;;;;;0.12;64.61;100238.83;2199057;80;21303;-74
2021/03/29 00:05:10;;;;;;;37.85;14.05;;;;;;;0.14;64.78;100247.02;2193203;81;21300;-74
2021/03/29 00:08:12;;;;;;;40.52;14.50;;;;;;;0.14;64.86;100247.02;2201699;81;21292;-74
2021/03/29 00:11:14;;;;;;;37.60;15.00;;;;;;;0.19;64.94;100247.02;2197848;80;21316;-74
2021/03/29 00:14:16;;;;;;;36.03;14.87;;;;;;;0.26;65.02;100241.44;2201582;80;21347;-74
2021/03/29 00:17:18;;;;;;;44.90;16.25;;;;;;;0.30;64.97;100242.77;2196568;79;21276;-74
2021/03/29 00:20:20;;;;;;;56.13;19.35;;;;;;;0.37;65.01;100239.76;2188277;79;21151;-75
2021/03/29 00:23:22;;;;;;;52.20;17.98;;;;;;;0.42;64.96;100247.55;2193322;79;21307;-75
2021/03/29 00:26:23;;;;;;;55.00;21.60;;;;;;;0.47;64.96;100248.40;2191079;79;21304;-74
2021/03/29 00:29:26;;;;;;;53.80;20.68;;;;;;;0.48;65.15;100245.82;2194256;80;21328;-75
2021/03/29 00:32:28;;;;;;;48.40;18.95;;;;;;;0.48;65.23;100248.41;2189523;80;21307;-75
2021/03/29 00:35:30;;;;;;;43.40;17.27;;;;;;;0.62;65.58;100247.16;2211682;80;21367;-75
2021/03/29 00:38:32;;;;;;;49.65;18.17;;;;;;;0.73;65.34;100247.16;2191010;80;21319;-75
2021/03/29 00:41:34;;;;;;;43.05;16.35;;;;;;;0.76;65.34;100248.89;2191063;80;21351;-74
2021/03/29 00:44:37;;;;;;;40.43;16.48;;;;;;;0.85;65.31;100250.22;2201602;79;21315;-75
2021/03/29 00:47:38;;;;;;;39.75;13.45;;;;;;;0.86;65.21;100256.68;2203166;80;21177;-74
2021/03/29 00:50:40;;;;;;;41.35;14.43;;;;;;;0.90;65.30;100252.80;2179697;80;21360;-74
2021/03/29 00:53:42;;;;;;;40.03;13.43;;;;;;;0.97;65.39;100252.80;2188341;80;21292;-74
2021/03/29 00:56:44;;;;;;;40.15;14.73;;;;;;;1.10;64.96;100256.26;2183662;80;21320;-74
2021/03/29 00:59:46;;;;;;;38.98;14.33;;;;;;;1.10;64.96;100256.26;2212254;80;21291;-75
2021/03/29 01:02:48;;;;;;;39.58;13.75;;;;;;;1.10;65.28;100248.50;2195169;80;21431;-73
2021/03/29 01:05:50;;;;;;;41.55;14.35;;;;;;;1.15;65.47;100253.26;2186587;80;21332;-75
2021/03/29 01:08:52;;;;;;;32.98;13.90;;;;;;;1.18;65.41;100248.09;2209935;80;21307;-73
2021/03/29 01:11:54;;;;;;;38.98;14.03;;;;;;;1.19;65.40;100242.47;2182060;80;21208;-74
2021/03/29 01:14:56;;;;;;;44.83;15.18;;;;;;;1.22;65.42;100245.05;2188752;80;21371;-74
2021/03/29 01:17:58;;;;;;;39.35;14.50;;;;;;;1.25;65.89;100245.08;2204932;80;21323;-73
2021/03/29 01:21:00;;;;;;;41.60;15.48;;;;;;;1.38;65.76;100240.77;2201674;80;21287;-74
2021/03/29 01:24:02;;;;;;;40.92;14.95;;;;;;;1.49;65.56;100227.80;2202855;80;21292;-74
2021/03/29 01:27:04;;;;;;;44.88;15.70;;;;;;;1.57;65.84;100226.08;2189670;80;21304;-74
2021/03/29 01:30:06;;;;;;;48.90;17.45;;;;;;;1.60;65.69;100229.95;2195533;79;21288;-75
2021/03/29 01:33:09;;;;;;;49.27;18.82;;;;;;;1.69;65.83;100231.65;2172394;80;21609;-75
2021/03/29 01:36:11;;;;;;;48.80;18.17;;;;;;;1.73;65.66;100234.22;2192012;80;21299;-75
2021/03/29 01:39:13;;;;;;;49.55;18.40;;;;;;;1.81;65.43;100239.39;2200528;80;21308;-75
2021/03/29 01:42:15;;;;;;;48.73;17.55;;;;;;;1.85;65.48;100234.64;2196324;80;21312;-75
2021/03/29 01:45:17;;;;;;;51.20;18.90;;;;;;;1.92;65.44;100241.09;2191017;80;21291;-74
2021/03/29 01:48:19;;;;;;;52.27;19.23;;;;;;;1.94;65.56;100241.93;2193581;80;21339;-75
2021/03/29 01:51:21;;;;;;;42.65;16.50;;;;;;;1.90;65.57;100243.68;2193199;80;21287;-74
2021/03/29 01:54:23;;;;;;;50.15;18.50;;;;;;;1.93;65.74;100239.78;2183205;80;21293;-74
2021/03/29 01:57:25;;;;;;;45.75;18.92;;;;;;;1.93;65.97;100233.77;2189084;80;21280;-74
2021/03/29 02:00:27;;;;;;;52.13;20.00;;;;;;;1.95;65.98;100229.42;2181511;80;21378;-75
2021/03/29 02:03:29;;;;;;;51.10;21.42;;;;;;;1.99;66.06;100241.05;2207123;80;21724;-74
2021/03/29 02:06:31;;;;;;;51.18;20.72;;;;;;;2.03;66.01;100244.06;2189209;80;21153;-74
2021/03/29 02:09:33;;;;;;;50.60;21.97;;;;;;;2.14;65.90;100246.63;2187936;80;21296;-74
2021/03/29 02:12:35;;;;;;;54.95;20.52;;;;;;;2.13;65.53;100246.63;2195295;80;21323;-75
2021/03/29 02:15:37;;;;;;;50.35;19.37;;;;;;;2.06;65.70;100241.45;2200633;79;21327;-74
2021/03/29 02:18:40;;;;;;;52.03;20.43;;;;;;;2.03;65.67;100241.92;2197359;80;21148;-74
2021/03/29 02:21:42;;;;;;;48.20;17.75;;;;;;;1.99;65.91;100243.64;2213194;80;21751;-74
2021/03/29 02:24:44;;;;;;;50.60;19.98;;;;;;;1.98;65.95;100242.35;2185480;80;21756;-75
2021/03/29 02:27:47;;;;;;;50.50;19.73;;;;;;;1.99;65.92;100243.64;2198907;79;21295;-73
2021/03/29 02:30:49;;;;;;;53.83;18.60;;;;;;;2.02;66.10;100240.19;2196274;79;21304;-74
2021/03/29 02:33:51;;;;;;;49.95;19.62;;;;;;;2.07;66.10;100247.52;2184239;79;21922;-74
2021/03/29 02:36:53;;;;;;;48.28;18.57;;;;;;;2.15;66.15;100241.85;2190649;80;21267;-75
2021/03/29 02:39:55;;;;;;;56.83;19.23;;;;;;;2.20;66.34;100245.30;2184731;80;21296;-71
2021/03/29 02:42:57;;;;;;;51.80;18.77;;;;;;;2.21;66.22;100242.27;2195942;80;21292;-74
2021/03/29 02:45:59;;;;;;;56.23;20.00;;;;;;;2.22;66.22;100247.43;2191114;80;21303;-74
2021/03/29 02:49:01;;;;;;;48.90;19.30;;;;;;;2.28;66.19;100249.14;2183400;80;21319;-72
2021/03/29 02:52:03;;;;;;;46.73;19.40;;;;;;;2.34;66.18;100250.84;2204453;80;21307;-74
2021/03/29 02:55:05;;;;;;;55.55;20.60;;;;;;;2.35;66.19;100248.23;2197984;80;21295;-74
2021/03/29 02:58:07;;;;;;;51.23;19.20;;;;;;;2.40;66.27;100259.90;2188389;80;21328;-73
2021/03/29 03:01:09;;;;;;;53.08;21.30;;;;;;;2.48;66.46;100263.29;2184178;80;21732;-74
2021/03/29 03:04:11;;;;;;;55.75;21.27;;;;;;;2.33;66.53;100268.12;2203260;80;21759;-72
2021/03/29 03:07:13;;;;;;;59.45;22.85;;;;;;;2.25;66.72;100264.69;2198283;78;21743;-74
2021/03/29 03:10:16;;;;;;;81.90;30.35;;;;;;;2.27;66.72;100257.80;2202997;80;21605;-74
2021/03/29 03:13:18;;;;;;;56.42;21.30;;;;;;;2.41;66.67;100262.89;2197750;80;21759;-73
2021/03/29 03:16:20;;;;;;;50.10;19.48;;;;;;;2.45;66.51;100258.13;2198987;80;21678;-74
2021/03/29 03:19:22;;;;;;;51.83;21.25;;;;;;;2.51;66.53;100261.13;2204975;80;21279;-73
2021/03/29 03:22:23;;;;;;;48.13;18.75;;;;;;;2.57;66.57;100256.78;2199194;80;21286;-74
2021/03/29 03:25:25;;;;;;;57.20;22.37;;;;;;;2.65;66.55;100258.02;2201802;80;21291;-73
2021/03/29 03:28:28;;;;;;;63.05;26.97;;;;;;;2.72;66.50;100254.97;2190028;80;21312;-74
2021/03/29 03:31:30;;;;;;;56.92;23.10;;;;;;;2.70;66.26;100257.98;2194703;80;21862;-73
2021/03/29 03:34:32;;;;;;;59.35;26.73;;;;;;;2.75;66.71;100259.69;2188773;80;21764;-73
2021/03/29 03:37:34;;;;;;;55.40;22.20;;;;;;;2.78;66.37;100262.25;2200199;80;21295;-73
2021/03/29 03:40:36;;;;;;;49.75;20.02;;;;;;;2.83;66.45;100260.07;2200645;80;21284;-73
2021/03/29 03:43:38;;;;;;;55.43;20.37;;;;;;;2.88;66.54;100256.58;2181455;80;21308;-74
2021/03/29 03:46:40;;;;;;;49.33;19.90;;;;;;;2.92;66.53;100251.80;2186177;80;21739;-74
2021/03/29 03:49:42;;;;;;;55.30;19.30;;;;;;;2.93;66.34;100253.95;2188086;79;21300;-74
2021/03/29 03:52:44;;;;;;;62.00;23.73;;;;;;;2.95;66.55;100250.48;2199153;80;21296;-74
2021/03/29 03:55:46;;;;;;;62.55;24.47;;;;;;;2.95;66.58;100255.67;2186074;80;21276;-74
2021/03/29 03:58:48;;;;;;;49.95;19.50;;;;;;;2.94;66.46;100250.50;2191282;80;21288;-74
2021/03/29 04:01:50;;;;;;;55.15;20.17;;;;;;;2.93;66.47;100257.42;2207465;80;21295;-74
2021/03/29 04:04:52;;;;;;;56.58;21.93;;;;;;;2.93;66.82;100265.20;2202436;80;21276;-74
2021/03/29 04:07:56;;;;;;;64.07;27.15;;;;;;;2.95;66.91;100266.48;2190706;80;21322;-74
2021/03/29 04:10:59;;;;;;;64.25;29.25;;;;;;;2.96;66.97;100268.22;2188505;80;21283;-74
2021/03/29 04:14:01;;;;;;;45.90;18.67;;;;;;;2.98;66.99;100274.23;2185952;80;21370;-74
2021/03/29 04:17:03;;;;;;;51.73;18.52;;;;;;;3.08;67.04;100265.52;2197399;80;21300;-74
2021/03/29 04:20:06;;;;;;;51.70;19.00;;;;;;;3.20;67.22;100261.11;2182651;80;21620;-74
2021/03/29 04:23:08;;;;;;;77.87;27.95;;;;;;;3.36;66.90;100261.84;2188973;80;21724;-73
2021/03/29 04:26:10;;;;;;;58.50;21.60;;;;;;;3.34;66.93;100273.53;2183747;80;21281;-70
2021/03/29 04:29:12;;;;;;;59.08;22.48;;;;;;;3.26;67.04;100266.24;2195804;80;21715;-74
2021/03/29 04:32:14;;;;;;;54.27;21.82;;;;;;;3.26;67.01;100268.84;2186188;80;21713;-72
2021/03/29 04:35:17;;;;;;;63.83;24.25;;;;;;;3.22;67.03;100268.02;2202761;80;21719;-73
2021/03/29 04:38:19;;;;;;;57.30;20.52;;;;;;;3.21;67.44;100274.06;2181934;79;21296;-73
2021/03/29 04:41:21;;;;;;;58.15;22.52;;;;;;;3.10;67.58;100269.39;2196094;80;21307;-74
2021/03/29 04:44:23;;;;;;;56.13;22.52;;;;;;;3.20;67.42;100273.63;2179800;80;21288;-70
2021/03/29 04:47:25;;;;;;;53.33;21.30;;;;;;;3.24;67.54;100267.55;2189452;80;21288;-73
2021/03/29 04:50:27;;;;;;;50.40;20.82;;;;;;;3.31;67.41;100261.89;2180622;80;21291;-72
2021/03/29 04:53:29;;;;;;;52.85;20.17;;;;;;;3.33;67.25;100264.02;2192866;80;21339;-73
2021/03/29 04:56:32;;;;;;;54.50;21.42;;;;;;;3.32;67.42;100266.22;2188930;80;21294;-73
2021/03/29 04:59:35;;;;;;;51.95;20.35;;;;;;;3.36;67.47;100271.80;2192773;80;21732;-74
2021/03/29 05:02:37;;;;;;;50.23;19.95;;;;;;;3.47;67.44;100269.10;2202649;80;21288;-74
2021/03/29 05:05:39;;;;;;;50.08;20.12;;;;;;;3.52;67.48;100262.16;2196080;80;21371;-73
2021/03/29 05:08:41;;;;;;;53.68;21.00;;;;;;;3.56;67.35;100262.55;2193712;79;21855;-73
2021/03/29 05:11:48;;;;;;;55.98;23.07;;;;;;;3.56;67.33;100259.08;2204480;79;21287;-73
2021/03/29 05:14:50;;;;;;;56.18;23.15;;;;;;;3.54;67.38;100237.04;2188932;80;21281;-74
2021/03/29 05:17:59;;;;;;;53.60;22.45;;;;;;;3.67;67.35;100261.13;2206127;80;21312;-74
2021/03/29 05:21:02;;;;;;;51.18;21.55;;;;;;;3.72;67.57;100261.96;2189983;79;21260;-73
2021/03/29 05:24:04;;;;;;;53.50;21.57;;;;;;;3.84;67.56;100267.45;2204601;80;22073;-74
2021/03/29 05:27:06;;;;;;;57.67;22.93;;;;;;;3.96;67.27;100269.91;2197899;80;21751;-73
2021/03/29 05:30:08;;;;;;;61.77;26.15;;;;;;;4.03;67.15;100276.35;2204718;80;21783;-74
2021/03/29 05:33:10;;;;;;;68.47;25.70;;;;;;;4.07;67.36;100278.04;2206534;80;21296;-74
2021/03/29 05:36:13;;;;;;;63.98;26.77;;;;;;;4.13;67.32;100276.66;2192624;80;21280;-74
2021/03/29 05:39:15;;;;;;;63.98;27.48;;;;;;;4.24;67.39;100281.72;2204599;80;21208;-74
2021/03/29 05:42:17;;;;;;;67.90;30.08;;;;;;;4.34;67.26;100284.66;2194429;80;21299;-73
2021/03/29 05:45:19;;;;;;;64.30;28.35;;;;;;;4.40;67.10;100288.47;2203364;80;21323;-73
2021/03/29 05:48:21;;;;;;;65.28;27.80;;;;;;;4.50;67.19;100286.62;2190931;80;21705;-74
2021/03/29 05:51:24;;;;;;;65.12;26.55;;;;;;;4.59;67.00;100286.48;2192342;80;21728;-73
2021/03/29 05:54:26;;;;;;;59.98;27.37;;;;;;;4.64;67.14;100284.70;2201378;80;21291;-74
2021/03/29 05:57:37;;;;;;;64.47;27.93;;;;;;;4.76;67.13;100283.66;2177762;80;21307;-74
2021/03/29 06:00:32;;;;;;;60.08;25.90;;;;;;;4.86;67.20;100279.20;2189326;80;21315;-74
2021/03/29 06:03:35;;;;;;;63.60;24.95;;;;;;;4.92;67.02;100285.60;2192658;79;21351;-74
2021/03/29 06:06:37;;;;;;;;;;;;;;;4.89;67.07;100280.45;2191918;80;21292;-73
2021/03/29 06:09:39;;;;;;;68.65;28.73;;;;;;;4.89;67.04;100275.70;2207551;80;20506;-74
2021/03/29 06:12:41;;;;;;;63.85;27.70;;;;;;;4.88;67.38;100284.37;2196824;80;21323;-74
2021/03/29 06:15:43;;;;;;;53.60;23.35;;;;;;;4.90;67.34;100284.78;2198572;79;21288;-75
2021/03/29 06:18:45;;;;;;;57.25;24.18;;;;;;;4.91;67.16;100289.08;2193871;80;21304;-74
2021/03/29 06:21:49;;;;;;;60.33;27.98;;;;;;;5.00;67.56;100282.45;2183618;80;21300;-74
2021/03/29 06:24:51;;;;;;;59.00;25.62;;;;;;;5.11;67.46;100275.78;2166612;80;21318;-73
2021/03/29 06:27:54;;;;;;;68.25;28.85;;;;;;;5.25;67.42;100268.22;2196849;80;21157;-74
2021/03/29 06:31:01;;;;;;;58.35;23.30;;;;;;;5.33;67.35;100271.53;2192823;80;21751;-74
2021/03/29 06:34:04;;;;;;;51.95;22.50;;;;;;;5.28;67.19;100274.22;2183485;80;21189;-73
2021/03/29 06:37:06;;;;;;;58.52;24.50;;;;;;;5.28;67.43;100272.06;2195642;80;21170;-73
2021/03/29 06:40:08;;;;;;;63.92;24.37;;;;;;;5.38;67.71;100274.93;2179616;80;21315;-74
2021/03/29 06:43:10;;;;;;;57.00;24.75;;;;;;;5.55;67.66;100270.30;2196008;80;21320;-74
2021/03/29 06:46:12;;;;;;;62.17;25.05;;;;;;;5.84;67.39;100270.67;2183723;79;21774;-72
2021/03/29 06:49:14;;;;;;;55.60;23.45;;;;;;;6.18;67.34;100262.25;2193236;80;21303;-73
2021/03/29 06:52:16;;;;;;;62.95;26.40;;;;;;;6.56;66.56;100267.95;2189332;80;21744;-74
2021/03/29 06:55:18;;;;;;;56.77;23.22;;;;;;;6.80;66.06;100264.86;2193892;80;21359;-71
2021/03/29 06:58:20;;;;;;;54.50;22.42;;;;;;;6.99;66.01;100275.72;2199649;80;21291;-70
2021/03/29 07:01:22;;;;;;;53.08;21.87;;;;;;;7.21;65.76;100273.03;2194027;80;21304;-71
2021/03/29 07:04:24;;;;;;;61.35;25.30;;;;;;;7.36;65.01;100277.46;2196032;80;21300;-73
2021/03/29 07:07:26;;;;;;;;;;;;;;;7.50;65.16;100280.59;2179055;80;21292;-74
2021/03/29 07:10:28;;;;;;;62.67;25.55;;;;;;;7.61;64.79;100281.17;2203544;80;20254;-72
2021/03/29 07:13:31;;;;;;;58.68;24.87;;;;;;;7.63;64.72;100288.51;2208633;80;21302;-74
2021/03/29 07:16:33;;;;;;;55.95;24.43;;;;;;;7.62;64.40;100288.55;2188530;80;21304;-73
2021/03/29 07:19:35;;;;;;;59.03;24.87;;;;;;;7.59;64.60;100288.17;2190030;80;21284;-72
2021/03/29 07:22:37;;;;;;;55.45;22.87;;;;;;;7.60;64.30;100296.86;2192339;80;21174;-74
2021/03/29 07:25:40;;;;;;;48.02;21.95;;;;;;;7.66;64.55;100295.41;2198943;80;21284;-74
2021/03/29 07:28:42;;;;;;;53.68;21.62;;;;;;;7.76;64.13;100289.52;2191935;80;21161;-74
2021/03/29 07:31:45;;;;;;;51.68;21.07;;;;;;;7.88;64.40;100288.33;2154818;80;21734;-73
2021/03/29 07:34:48;;;;;;;55.52;20.85;;;;;;;8.09;64.11;100282.98;2190691;80;21712;-74
2021/03/29 07:37:50;;;;;;;54.90;22.82;;;;;;;8.28;63.93;100288.08;2208750;79;21300;-72
2021/03/29 07:40:52;;;;;;;51.60;21.65;;;;;;;8.47;63.59;100285.82;2192018;80;21288;-70
2021/03/29 07:43:54;;;;;;;64.17;25.60;;;;;;;8.63;63.45;100289.30;2188524;80;21847;-71
2021/03/29 07:46:56;;;;;;;50.38;21.40;;;;;;;8.83;63.42;100280.85;2208605;80;21328;-71
2021/03/29 07:49:59;;;;;;;48.52;19.80;;;;;;;9.08;62.92;100292.74;2205537;80;21700;-70
2021/03/29 07:53:01;;;;;;;48.65;20.27;;;;;;;9.15;62.24;100291.64;2211020;80;21744;-70
2021/03/29 07:56:03;;;;;;;55.48;23.80;;;;;;;9.27;62.17;100293.00;2189010;80;21728;-74
2021/03/29 07:59:06;;;;;;;52.40;23.12;;;;;;;9.41;62.16;100296.50;2182351;80;21288;-72
2021/03/29 08:02:08;;;;;;;49.58;20.80;;;;;;;9.70;62.32;100294.20;2199656;80;21272;-73
2021/03/29 08:05:15;;;;;;;50.73;19.10;;;;;;;10.04;61.08;100289.54;2190362;80;21280;-73
2021/03/29 08:08:17;;;;;;;47.60;19.85;;;;;;;10.21;60.27;100281.08;2182952;80;21609;-74
2021/03/29 08:11:20;;;;;;;51.25;19.57;;;;;;;10.41;60.69;100285.63;2164397;81;21275;-74
2021/03/29 08:14:22;;;;;;;;;;;;;;;10.62;60.11;100287.06;2198566;79;21173;-72
2021/03/29 08:17:24;;;;;;;43.28;19.32;;;;;;;10.84;59.87;100296.27;2213899;80;20415;-73
2021/03/29 08:20:26;;;;;;;53.15;22.65;;;;;;;10.92;59.07;100293.75;2193005;80;21299;-72
2021/03/29 08:23:28;;;;;;;54.70;22.00;;;;;;;10.96;58.00;100289.25;2200503;80;21383;-72
2021/03/29 08:26:30;;;;;;;51.20;19.20;;;;;;;11.01;58.29;100290.38;2195435;80;21308;-71
2021/03/29 08:29:33;;;;;;;39.13;15.93;;;;;;;11.14;58.01;100282.86;2193772;80;21614;-73
2021/03/29 08:32:36;;;;;;;41.53;15.68;;;;;;;11.26;56.48;100275.34;2205028;80;21166;-73
2021/03/29 08:35:40;;;;;;;51.13;21.20;;;;;;;11.39;57.54;100277.45;2193255;80;21285;-73
2021/03/29 08:38:43;;;;;;;44.93;17.70;;;;;;;11.54;57.44;100280.77;2177524;80;21275;-73
2021/03/29 08:41:45;;;;;;;48.25;18.80;;;;;;;11.67;56.38;100274.53;2204573;79;21637;-72
2021/03/29 08:44:47;;;;;;;47.58;18.30;;;;;;;11.78;56.65;100278.03;2199054;80;21811;-73
2021/03/29 08:47:49;;;;;;;36.40;15.70;;;;;;;11.98;56.43;100273.22;2175086;80;21735;-73
2021/03/29 08:50:52;;;;;;;40.05;14.93;;;;;;;12.26;56.03;100272.02;2207438;80;21271;-72
2021/03/29 08:53:54;;;;;;;34.05;14.40;;;;;;;12.47;54.70;100270.20;2194051;80;21190;-72
2021/03/29 08:56:56;;;;;;;38.13;13.70;;;;;;;12.83;53.94;100262.35;2208469;80;21308;-72
2021/03/29 08:59:58;;;;;;;34.25;15.18;;;;;;;12.83;53.94;100262.35;2162343;80;21301;-73
2021/03/29 09:03:00;;;;;;;38.70;14.55;;;;;;;13.05;53.63;100263.11;2200101;80;21287;-73
2021/03/29 09:06:02;;;;;;;35.28;12.13;;;;;;;13.18;52.27;100266.84;2188771;80;21387;-72
2021/03/29 09:09:04;;;;;;;31.52;11.75;;;;;;;13.12;51.80;100268.00;2208178;80;21779;-72
2021/03/29 09:12:07;;;;;;;37.20;12.40;;;;;;;13.05;50.91;100273.17;2187242;80;22720;-71
2021/03/29 09:15:09;;;;;;;34.78;12.30;;;;;;;13.01;51.49;100270.29;2198725;80;21296;-72
2021/03/29 09:18:11;;;;;;;33.28;12.60;;;;;;;13.04;50.44;100267.98;2198454;80;21294;-73
2021/03/29 09:21:13;;;;;;;36.15;14.65;;;;;;;13.18;50.66;100266.38;2183761;80;21269;-73
2021/03/29 09:24:15;;;;;;;35.15;13.78;;;;;;;13.34;50.66;100265.62;2181778;80;21292;-73
2021/03/29 09:27:17;;;;;;;32.50;11.68;;;;;;;13.54;50.59;100258.07;2195882;80;21291;-73
2021/03/29 09:30:19;;;;;;;34.53;12.50;;;;;;;13.63;49.64;100249.71;2190487;80;21283;-73
2021/03/29 09:33:21;;;;;;;35.30;12.33;;;;;;;13.92;48.02;100243.39;2207419;79;21308;-73
2021/03/29 09:36:23;;;;;;;34.48;11.45;;;;;;;14.29;47.65;100245.85;2200399;80;21291;-72
2021/03/29 09:39:26;;;;;;;31.17;10.78;;;;;;;14.44;47.71;100241.07;2196242;80;21363;-73
2021/03/29 09:42:28;;;;;;;33.30;10.90;;;;;;;14.27;47.54;100244.62;2203162;80;21327;-72
2021/03/29 09:45:30;;;;;;;28.47;9.98;;;;;;;14.18;47.25;100239.37;2192597;80;21383;-72
2021/03/29 09:48:33;;;;;;;33.90;11.83;;;;;;;14.13;44.70;100237.43;2193728;80;21296;-73
2021/03/29 09:51:35;;;;;;;30.52;11.55;;;;;;;13.82;48.37;100244.78;2204395;80;21300;-73
2021/03/29 09:54:37;;;;;;;28.87;10.50;;;;;;;14.08;48.10;100239.92;2179674;80;21732;-73
2021/03/29 09:57:40;;;;;;;30.75;10.72;;;;;;;14.31;46.57;100250.56;2208547;80;21605;-73
2021/03/29 10:00:42;;;;;;;29.48;10.55;;;;;;;14.32;46.62;100239.95;2184557;80;21299;-72
2021/03/29 10:03:44;;;;;;;31.52;9.68;;;;;;;14.42;47.28;100247.36;2186974;80;21329;-73
2021/03/29 10:06:46;;;;;;;30.15;9.43;;;;;;;14.36;45.57;100247.22;2194049;79;21839;-72
2021/03/29 10:09:48;;;;;;;28.17;9.53;;;;;;;14.18;46.31;100247.28;2195632;80;21304;-73
2021/03/29 10:12:50;;;;;;;;;;;;;;;13.99;45.03;100240.82;2206687;80;21304;-72
2021/03/29 10:15:53;;;;;;;29.30;8.75;;;;;;;13.93;46.19;100248.19;2205069;80;20144;-72
2021/03/29 10:18:55;;;;;;;30.05;8.33;;;;;;;13.71;46.09;100246.67;2202575;80;21347;-72
2021/03/29 10:21:57;;;;;;;30.32;9.20;;;;;;;13.71;45.58;100244.03;2193041;80;21307;-72
2021/03/29 10:24:59;;;;;;;26.17;7.65;;;;;;;13.80;45.31;100247.50;2181388;80;21360;-72
2021/03/29 10:28:02;;;;;;;26.17;7.83;;;;;;;13.77;43.31;100242.87;2199459;80;21748;-72
2021/03/29 10:31:04;;;;;;;26.90;8.55;;;;;;;13.62;43.74;100243.17;2184229;80;21736;-72
2021/03/29 10:34:06;;;;;;;28.98;8.08;;;;;;;13.55;44.57;100249.69;2197290;80;21728;-72
2021/03/29 10:37:08;;;;;;;25.15;7.90;;;;;;;13.40;43.97;100251.32;2197903;80;21941;-72
2021/03/29 10:40:10;;;;;;;29.60;10.53;;;;;;;13.28;44.53;100246.17;2204880;80;21295;-72
2021/03/29 10:43:12;;;;;;;37.85;13.20;;;;;;;13.44;45.81;100237.91;2199104;80;21296;-73
2021/03/29 10:46:14;;;;;;;26.02;7.70;;;;;;;13.62;44.85;100237.45;2194178;80;21700;-72
2021/03/29 10:49:16;;;;;;;28.35;9.15;;;;;;;13.64;43.89;100232.94;2202117;80;21708;-72
2021/03/29 10:52:18;;;;;;;29.18;7.78;;;;;;;13.57;44.95;100241.25;2195521;80;21736;-72
2021/03/29 10:55:21;;;;;;;;;;;;;;;13.48;44.60;100242.58;2194207;80;22062;-73
2021/03/29 10:58:23;;;;;;;25.97;6.90;;;;;;;13.23;43.63;100254.76;2175443;80;20219;-72
2021/03/29 11:01:25;;;;;;;24.23;6.50;;;;;;;12.94;44.12;100246.50;2182386;80;21165;-73
2021/03/29 11:04:27;;;;;;;28.20;8.18;;;;;;;12.92;44.61;100249.20;2153660;81;21285;-73
2021/03/29 11:07:29;;;;;;;26.20;8.40;;;;;;;12.88;45.33;100239.74;2187101;80;21730;-73
2021/03/29 11:10:33;;;;;;;23.22;5.72;;;;;;;12.86;44.83;100249.95;2173143;80;21743;-73
2021/03/29 11:13:35;;;;;;;23.00;6.12;;;;;;;12.62;44.12;100249.73;2188955;80;21288;-73
2021/03/29 11:16:37;;;;;;;25.52;7.12;;;;;;;12.44;45.23;100249.27;2192682;80;21153;-73
2021/03/29 11:19:39;;;;;;;23.87;6.20;;;;;;;12.32;45.47;100251.16;2205461;80;21296;-73
2021/03/29 11:22:43;;;;;;;26.17;7.10;;;;;;;12.27;45.31;100256.64;2175903;80;21157;-72
2021/03/29 11:25:45;;;;;;;26.80;7.10;;;;;;;12.13;45.73;100254.62;2210316;80;21366;-72
2021/03/29 11:28:47;;;;;;;28.32;7.40;;;;;;;12.03;45.93;100255.95;2156794;81;21747;-73
2021/03/29 11:31:50;;;;;;;26.48;7.97;;;;;;;12.00;46.44;100263.98;2156102;80;21138;-73
2021/03/29 11:34:52;;;;;;;25.82;7.05;;;;;;;11.98;46.41;100269.75;2189841;80;21197;-73
2021/03/29 11:37:54;;;;;;;29.37;7.80;;;;;;;12.01;47.11;100249.89;2192048;80;22357;-73
2021/03/29 11:40:56;;;;;;;;;;;;;;;12.12;46.68;100264.73;2182695;80;21720;-73
2021/03/29 11:43:58;;;;;;;31.50;7.83;;;;;;;12.23;46.86;100256.38;2191129;80;20123;-73
2021/03/29 11:47:00;;;;;;;27.02;7.42;;;;;;;12.28;46.53;100250.42;2201345;79;21304;-73
2021/03/29 11:50:02;;;;;;;28.65;8.43;;;;;;;12.26;47.06;100257.55;2199439;80;21256;-73
2021/03/29 11:53:05;;;;;;;;;;;;;;;12.23;46.97;100252.44;2203904;80;21296;-73
2021/03/29 11:56:07;;;;;;;27.93;8.55;;;;;;;12.26;46.08;100261.50;2209781;80;20222;-72
2021/03/29 11:59:09;;;;;;;23.50;7.42;;;;;;;12.30;47.01;100256.49;2194964;80;21284;-73
2021/03/29 12:02:17;;;;;;;26.55;7.97;;;;;;;12.42;46.93;100247.17;2181440;80;21304;-72
2021/03/29 12:05:16;;;;;;;27.27;8.23;;;;;;;12.45;46.65;100241.77;2181945;80;21295;-71
2021/03/29 12:08:22;;;;;;;27.55;8.38;;;;;;;12.48;46.52;100246.88;2197069;79;21157;-72
2021/03/29 12:14:44;;;;;;;29.05;8.78;;;;;;;12.50;46.42;100242.42;2173533;80;21203;-73
2021/03/29 12:17:48;;;;;;;26.60;8.65;;;;;;;12.50;48.15;100238.92;2189347;80;21312;-73
2021/03/29 12:20:51;;;;;;;28.98;9.35;;;;;;;12.54;47.79;100233.46;2192695;79;21284;-72
2021/03/29 12:23:53;;;;;;;29.48;9.43;;;;;;;12.64;46.84;100235.17;2182661;80;21743;-73
2021/03/29 12:26:55;;;;;;;27.95;8.05;;;;;;;12.72;47.90;100232.20;2166014;80;21315;-72
2021/03/29 12:30:02;;;;;;;26.25;8.33;;;;;;;12.88;46.75;100230.53;2187901;80;21304;-73
2021/03/29 12:33:01;;;;;;;24.82;7.87;;;;;;;12.85;45.90;100230.67;2191025;80;21721;-71
2021/03/29 12:36:03;;;;;;;28.30;8.58;;;;;;;12.93;46.69;100239.52;2189652;80;21728;-72
2021/03/29 12:39:08;;;;;;;31.40;8.78;;;;;;;12.94;46.85;100225.42;2182913;80;21731;-73
2021/03/29 12:42:11;;;;;;;26.70;7.90;;;;;;;12.89;47.04;100224.34;2199950;80;21339;-73
2021/03/29 12:45:12;;;;;;;28.17;8.40;;;;;;;12.93;47.04;100219.32;2190895;80;21331;-73
2021/03/29 12:48:18;;;;;;;26.73;8.60;;;;;;;12.86;47.76;100222.30;2197167;80;21295;-73
2021/03/29 12:51:18;;;;;;;26.48;8.28;;;;;;;12.90;48.01;100219.92;2186733;80;21284;-73
2021/03/29 12:54:23;;;;;;;28.62;8.35;;;;;;;12.83;48.29;100224.17;2194879;80;21292;-73
2021/03/29 12:57:24;;;;;;;27.75;8.25;;;;;;;12.92;49.43;100221.55;2194587;80;21264;-73
2021/03/29 13:00:27;;;;;;;25.27;6.95;;;;;;;12.96;48.78;100214.38;2191848;80;21289;-74
2021/03/29 13:03:36;;;;;;;25.60;7.03;;;;;;;12.82;48.85;100218.50;2166636;80;21716;-74
2021/03/29 13:06:37;;;;;;;26.95;8.05;;;;;;;12.67;49.46;100240.33;2201458;79;21259;-72
2021/03/29 13:09:41;;;;;;;31.15;9.25;;;;;;;12.52;50.10;100227.88;2189143;80;21752;-72
2021/03/29 13:12:41;;;;;;;27.75;8.28;;;;;;;12.48;49.95;100227.15;2180807;80;21293;-74
2021/03/29 13:15:43;;;;;;;23.15;6.90;;;;;;;12.50;50.66;100233.21;2201038;80;21311;-74
2021/03/29 13:18:46;;;;;;;24.60;7.95;;;;;;;12.47;51.53;100227.63;2200514;80;21726;-73
2021/03/29 13:21:49;;;;;;;22.27;6.90;;;;;;;12.52;51.42;100232.66;2211116;80;21292;-73
2021/03/29 13:24:51;;;;;;;29.20;7.50;;;;;;;12.54;51.33;100228.64;2176890;80;21314;-73
2021/03/29 13:27:53;;;;;;;24.87;6.53;;;;;;;12.49;52.08;100227.55;2199993;80;21283;-72
2021/03/29 13:30:55;;;;;;;25.97;7.35;;;;;;;12.48;51.89;100225.83;2198032;80;21287;-74
2021/03/29 13:33:57;;;;;;;26.40;7.50;;;;;;;12.50;52.95;100221.37;2187272;80;21339;-74
2021/03/29 13:36:59;;;;;;;26.30;7.78;;;;;;;12.58;53.03;100228.42;2194808;80;21281;-73
2021/03/29 13:40:01;;;;;;;24.43;7.05;;;;;;;12.56;53.69;100233.39;2189136;80;21299;-73
2021/03/29 13:43:03;;;;;;;22.32;6.72;;;;;;;12.52;53.88;100229.19;2201392;80;21285;-74
2021/03/29 13:46:05;;;;;;;;;;;;;;;12.47;54.97;100232.89;2202948;80;21330;-74
2021/03/29 13:49:07;;;;;;;24.43;7.05;;;;;;;12.36;54.84;100231.69;2204055;79;20239;-74
2021/03/29 13:52:10;;;;;;;24.95;7.72;;;;;;;12.24;54.49;100227.81;2181797;80;21751;-74
2021/03/29 13:55:13;;;;;;;22.85;7.25;;;;;;;12.22;55.37;100238.88;2199411;80;21731;-72
2021/03/29 13:58:15;;;;;;;23.15;7.35;;;;;;;12.22;55.86;100233.14;2193562;80;21284;-74
2021/03/29 14:01:17;;;;;;;27.93;7.53;;;;;;;12.27;55.34;100218.49;2160855;80;21280;-72
2021/03/29 14:04:19;;;;;;;25.25;7.08;;;;;;;12.34;55.95;100227.81;2200193;80;21811;-73